Airfield :
LOGIN :

Register | Disclaimer

   EN    FR    IT 

 










Legend :    VFR   Marginal VFR   IFR   Intensive IFR   Very Intensive IFR
Visi :
Ceiling :
>= 8 km
>= 3000ft
5 to 8 km
1000 to 3000 ft
1500m to 5 km
500 to 1000 ft
800 to 1500m
200 to 500 ft
< 800m
< 200 ft
Symbols :   Thunderstorms  Fog  Heavy snow  Heavy precipitations  Wind > 20 kt
SIGMETs :     Misc.  Thunderstorms  Icing  Turbulence  Mountain Waves  Volcanic Ashes






- Airport Elevation : 325 ft
- IATA code : BES


LFRB - Brest

CURRENT METAR :
  • 250000Z AUTO 30013KT 9999 SCT032 SCT110 BKN140 10/07 Q1002 TEMPO 4000 SHRA SCT012CB BKN014 BECMG 30020G30KT

EXPIRED METARs :
  • 242330Z AUTO 30015KT 270V330 9999 -RA FEW028/// BKN076/// BKN100/// ///CB 10/07 Q1002 TEMPO 4000 SHRA SCT012CB BKN014 BECMG 30020G30KT
  • 242300Z AUTO 30016G29KT 270V330 9999 SCT033 SCT054 11/07 Q1002 TEMPO 30028G45KT 2000 TSRAGS BKN015CB
  • 242230Z AUTO 30018G31KT 270V330 9999 FEW025/// SCT031/// BKN056/// ///CB 11/08 Q1001
  • 242200Z AUTO 30018KT 9999 BKN030/// BKN038/// BKN048/// ///CB 11/08 Q1001 TEMPO 30028G45KT 2000 TSRAGS
  • 242130Z AUTO 28013KT 260V320 9999 FEW038/// BKN046/// BKN054/// ///CB 11/08 Q1000 TEMPO 30028G45KT 2000 TSRAGS

TAF TAF LFRB
Valid from the 25 at 00:00 until the 26 at 06:00 UTC


242300Z 2500/2606 30020G30KT 9999 SCT025 BKN040
TEMPO 2500/2518 4000 SHRA SCT012CB BKN014
BECMG 2518/2520 33012KT
ATIS : +33 2 98 32 02 71



MET'MAP, your aeronautical weather chart ! - Copyright ORBIFLY December 2007 - Disclaimer

ORBIFLY MET'MAP TEAM :

Programming & Development : Alexandra Zaïnal
Concept & original design : Baudouin d'Aumeries
Assistance for programming : Marc-Olivier Méhu
Technical & hardware support : Manuel Goepfert

Contact : metmap@orbifly.com




SOURCES & CREDITS :

   NOAA